Time;durP1;ratioP1;P1;durP2;ratioP2;P2;SDS_P1;SDS_P2;PMS_P1;PMS_P2;Temp;Humidity;BMP_temperature;BMP_pressure;BME280_temperature;BME280_humidity;BME280_pressure;Samples;Min_cycle;Max_cycle;Signal;HPM_P1;HPM_P2
2022/11/19 10:09:20;;;;;;;6.45;1.98;;;;;;;7.17;84.84;95905.44;2083141;28;20557;-64
2022/11/19 10:10:33;;;;;;;4.53;2.00;;;;;;;7.25;85.94;95902.50;2083264;28;20197;-64
2022/11/19 10:12:05;;;;;;;3.80;1.80;;;;;;;7.21;84.80;95906.16;2083562;28;20333;-64
2022/11/19 10:13:28;;;;;;;5.90;1.50;;;;;;;7.26;86.08;95906.81;2082540;28;20225;-65
2022/11/19 10:14:59;;;;;;;2.63;1.30;;;;;;;7.21;85.60;95895.78;2082728;28;20659;-65
2022/11/19 10:16:42;;;;;;;8.07;1.48;;;;;;;6.91;84.67;95901.34;2082764;28;20202;-65
2022/11/19 10:18:15;;;;;;;7.30;1.42;;;;;;;6.82;85.37;95900.84;2075495;28;20739;-65
2022/11/19 10:19:42;;;;;;;2.75;1.25;;;;;;;6.72;85.95;95904.72;2082290;28;20226;-65
2022/11/19 10:20:49;;;;;;;4.30;1.65;;;;;;;6.45;84.46;95894.56;2083550;28;20209;-64
2022/11/19 10:22:07;;;;;;;3.60;1.73;;;;;;;6.43;86.07;95887.75;2082610;28;20202;-64
2022/11/19 10:23:23;;;;;;;5.20;1.83;;;;;;;6.52;87.05;95893.41;2083096;28;20209;-64
2022/11/19 10:24:37;;;;;;;2.97;1.52;;;;;;;6.34;86.42;95886.38;2081753;28;20331;-64
2022/11/19 10:25:45;;;;;;;3.80;1.60;;;;;;;6.39;85.77;95897.41;2082388;28;20207;-65
2022/11/19 10:26:57;;;;;;;3.35;1.30;;;;;;;6.38;85.88;95899.13;2082024;28;20347;-64
2022/11/19 10:28:16;;;;;;;8.10;1.48;;;;;;;6.37;86.82;95884.50;2083322;28;20203;-64
2022/11/19 10:29:21;;;;;;;6.38;1.90;;;;;;;6.33;86.83;95887.28;2083963;28;20258;-64
2022/11/19 10:30:27;;;;;;;4.10;1.30;;;;;;;6.33;87.36;95879.50;2083174;28;20197;-64
2022/11/19 10:31:36;;;;;;;11.63;1.70;;;;;;;6.46;87.21;95904.03;2083028;28;20250;-64
2022/11/19 10:32:42;;;;;;;5.25;1.30;;;;;;;6.33;85.33;95906.25;2083169;28;20272;-63
2022/11/19 14:06:08;;;;;;;12.65;4.28;;;;;;;6.04;93.28;95890.13;2100830;27;20550;-64
2022/11/19 14:07:44;;;;;;;16.77;4.15;;;;;;;5.96;93.24;95865.38;2077365;28;20201;-65
2022/11/19 14:09:14;;;;;;;7.60;3.50;;;;;;;6.19;93.18;95882.63;2067446;28;20223;-65
2022/11/19 14:10:50;;;;;;;8.18;3.97;;;;;;;6.25;92.67;95895.34;2052335;28;20734;-65
2022/11/19 14:12:22;;;;;;;6.70;3.63;;;;;;;6.33;92.60;95895.06;2061223;28;20877;-65
2022/11/19 14:14:05;;;;;;;5.97;2.85;;;;;;;6.47;92.60;95891.91;2062386;28;20208;-65
2022/11/19 14:26:39;;;;;;;8.65;3.63;;;;;;;6.62;88.15;95877.47;2069372;28;20200;-65
2022/11/19 14:27:41;;;;;;;9.02;3.17;;;;;;;6.65;89.05;95883.38;2069114;28;20563;-65
2022/11/19 14:28:51;;;;;;;8.88;3.55;;;;;;;6.64;88.44;95876.50;2068833;28;20816;-65
2022/11/19 14:29:55;;;;;;;7.25;3.55;;;;;;;6.80;88.18;95874.09;2056755;28;20240;-65
2022/11/19 14:31:03;;;;;;;5.88;2.45;;;;;;;6.68;88.09;95872.03;2050592;28;20200;-65
2022/11/19 14:32:05;;;;;;;11.43;3.47;;;;;;;6.62;87.92;95874.88;2058846;28;20566;-65
2022/11/19 14:33:42;;;;;;;4.90;2.97;;;;;;;6.57;87.68;95880.25;2068894;28;20199;-64
2022/11/19 14:35:06;;;;;;;5.85;2.45;;;;;;;6.66;86.50;95881.63;2069334;28;20456;-65
2022/11/19 14:36:13;;;;;;;5.60;2.80;;;;;;;6.69;86.29;95873.69;2069414;28;20327;-65
2022/11/19 14:37:20;;;;;;;6.03;3.08;;;;;;;6.77;87.05;95888.97;2065159;28;20201;-63
2022/11/19 14:38:34;;;;;;;9.70;3.78;;;;;;;7.08;85.99;95883.31;2066424;28;20292;-63
2022/11/19 14:39:42;;;;;;;8.93;3.88;;;;;;;6.83;86.04;95871.38;2089945;28;20812;-63
2022/11/19 14:40:44;;;;;;;5.75;3.08;;;;;;;6.93;86.34;95889.16;2091601;28;20199;-63
2022/11/19 14:41:45;;;;;;;12.68;4.97;;;;;;;6.81;86.61;95885.34;2089709;28;20201;-64
2022/11/19 15:50:51;;;;;;;9.70;4.10;;;;;;;5.70;89.82;95914.69;2102617;27;20552;-63
